Philadelphia, Pennsylvania
Traffic Map
Current Weather Conditions
Philadelphia, Pennsylvania
Scattered Clouds
Scattered Clouds
18°
Feels Like: 18°
Wind Chill: 18° Ceiling: Unl
Heat Index: 18° Visibility: 10mi
Dew Point: 10° Wind: 6mph
Humidity: 58% Direction: 30° (NNE)
Pressure: 30.03in Gusts: 0mph
Raw Report DataKPHL 170254Z 03005KT 10SM SCT070 18/10 A3003 RMK AO2 SLP168 T01830100 51007
Traffic Incident Summary
Active as of:
Severity:
Category:
InformationThere was an issue retrieving the traffic information for this location. Please try a different location or try again shortly.
Advertisements
Track Severe Weather on mobile